NEW EXCHEQUER-LK MCCLURE (EXC)

Elevation: 879' · MERCED R basin · Operator: Merced Irrigation District

Provisional data, subject to change.
Query executed Tuesday at 10:20:09   clock

Select a sensor type for a plot of data.
Note: Reservoir Flows are daily averages.

Earlier

Date RES ELE    STORAGE    RES CHG    TOC STO    ABV TOC    OUTFLOW    INFLOW    PPT INC    TEMP MN    TEMP MX    TEMP AV   
 FEET   AF   AF   AF   AF   CFS   CFS   INCHES   DEG F   DEG F   DEG F  
03/22/2015 608.41 90733 156 701230 -610497 208 326 0.00 -- -- --
03/23/2015 608.59 90967 130 705035 -614068 192 310 0.00 -- -- --
03/24/2015 608.73 91149 104 708839 -617690 208 300 0.00 -- -- --
03/25/2015 608.86 91318 91 712644 -621326 210 295 0.00 -- -- --
03/26/2015 608.92 91396 13 716448 -625052 213 253 0.00 -- -- --
03/27/2015 608.98 91474 39 720252 -628817 207 246 0.00 -- -- --
03/28/2015 609.12 91656 182 -- -- -- -- -- -- -- --
03/29/2015 609.51 92163 338 727861 -- 215 386 0.00 -- -- --
03/30/2015 609.78 92514 351 731665 -- 207 384 0.00 -- -- --
03/31/2015 610.07 92891 390 735470 -- 210 400 0.00 -- -- --
04/01/2015 610.35 93255 377 739274 -646019 210 393 0.00 -- -- --
04/02/2015 610.50 93450 104 743078 -649628 215 314 0.00 -- -- --
04/03/2015 610.57 93541 65 746883 -653342 210 256 0.00 -- -- --
04/04/2015 610.64 93632 52 750687 -657055 211 257 0.00 -- -- --
04/05/2015 610.67 93671 -- 754491 -660820 212 232 0.15 -- -- --
04/06/2015 610.66 93658 -26 758296 -664638 210 203 0.00 -- -- --
04/07/2015 610.76 93788 52 762100 -668312 215 281 0.41 -- -- --
04/08/2015 610.81 93853 -26 765904 -672051 210 243 0.00 -- -- --
04/09/2015 610.88 93944 -13 769709 -675765 200 246 0.00 -- -- --
04/10/2015 611.05 94170 91 773513 -679343 172 286 0.00 -- -- --
04/11/2015 611.32 94548 168 777317 -682769 160 350 0.00 -- -- --
04/12/2015 611.63 94982 196 781122 -- 163 382 0.00 -- -- --
04/13/2015 611.97 95458 238 784926 -689468 165 405 0.00 -- -- --
04/14/2015 612.40 96060 336 788730 -692670 154 458 0.00 -- -- --
04/15/2015 612.75 96550 280 792535 -695985 177 424 0.00 -- -- --
04/16/2015 612.96 96844 154 796339 -699495 177 325 0.00 -- -- --
04/17/2015 613.11 97054 112 800144 -703090 188 294 0.00 -- -- --
04/18/2015 613.29 97306 126 803948 -706642 192 319 0.00 -- -- --
04/19/2015 613.44 97516 70 807752 -710236 214 320 0.00 -- -- --
04/20/2015 613.53 97642 56 811556 -713914 232 296 0.00 -- -- --
04/21/2015 -- -- -- -- -- -- -- -- -- -- --

Later | Latest

Warning! This data is preliminary and subject to revision.

Show EXC Map | Plot EXC Data | 1 Month EXC Data | Real-Time EXC Data | EXC Info